createdAt,value
2019-05-25T00:01:45.631Z,5.20
2019-05-25T00:06:31.656Z,4.30
2019-05-25T00:11:16.718Z,4.97
2019-05-25T00:16:01.597Z,4.83
2019-05-25T00:20:47.222Z,5.13
2019-05-25T00:25:32.271Z,4.30
2019-05-25T00:30:17.903Z,4.80
2019-05-25T00:35:03.189Z,4.67
2019-05-25T00:39:48.750Z,4.50
2019-05-25T00:44:34.295Z,4.73
2019-05-25T00:49:19.055Z,4.57
2019-05-25T00:54:04.102Z,4.60
2019-05-25T00:58:49.109Z,4.27
2019-05-25T01:03:34.045Z,4.20
2019-05-25T01:08:19.125Z,4.87
2019-05-25T01:13:04.045Z,4.07
2019-05-25T01:17:49.025Z,4.90
2019-05-25T01:22:34.130Z,4.47
2019-05-25T01:27:19.252Z,4.37
2019-05-25T01:32:04.363Z,4.50
2019-05-25T01:36:49.347Z,4.30
2019-05-25T01:41:34.420Z,4.57
2019-05-25T01:46:19.183Z,5.10
2019-05-25T01:51:04.275Z,5.13
2019-05-25T01:55:49.139Z,5.00
2019-05-25T02:00:34.079Z,5.37
2019-05-25T02:05:19.203Z,5.27
2019-05-25T02:10:04.455Z,6.37
2019-05-25T02:14:49.313Z,6.40
2019-05-25T02:19:34.347Z,5.97
2019-05-25T02:24:19.627Z,7.13
2019-05-25T02:29:05.251Z,6.70
2019-05-25T02:33:50.531Z,6.97
2019-05-25T02:38:36.745Z,6.27
2019-05-25T02:43:21.865Z,7.13
2019-05-25T02:48:06.897Z,6.80
2019-05-25T02:52:52.022Z,6.57
2019-05-25T02:57:36.959Z,6.13
2019-05-25T03:02:22.550Z,6.27
2019-05-25T03:07:07.443Z,6.13
2019-05-25T03:11:53.690Z,6.60
2019-05-25T03:16:38.815Z,6.50
2019-05-25T03:21:23.605Z,6.57
2019-05-25T03:26:08.527Z,6.83
2019-05-25T03:30:53.195Z,7.33
2019-05-25T03:35:42.745Z,7.03
2019-05-25T03:40:28.367Z,6.80
2019-05-25T03:45:16.617Z,6.53
2019-05-25T03:50:01.666Z,7.27
2019-05-25T03:54:50.089Z,6.97
2019-05-25T03:59:35.291Z,6.77
2019-05-25T04:04:20.625Z,7.13
2019-05-25T04:09:06.104Z,7.27
2019-05-25T04:13:55.286Z,8.20
2019-05-25T04:18:40.119Z,7.97
2019-05-25T04:23:25.950Z,7.87
2019-05-25T04:28:13.588Z,7.87
2019-05-25T04:32:58.660Z,7.77
2019-05-25T04:37:43.678Z,8.57
2019-05-25T04:42:28.724Z,8.50
2019-05-25T04:47:26.194Z,8.30
2019-05-25T04:52:01.551Z,7.60
2019-05-25T04:56:46.779Z,8.03
2019-05-25T05:01:31.767Z,7.47
2019-05-25T05:06:16.715Z,7.97
2019-05-25T05:11:02.289Z,8.10
2019-05-25T05:15:47.750Z,8.37
2019-05-25T05:20:32.630Z,7.97
2019-05-25T05:25:17.580Z,8.97
2019-05-25T05:30:02.386Z,8.80
2019-05-25T05:34:48.087Z,9.03
2019-05-25T05:39:33.437Z,9.30
2019-05-25T05:44:21.642Z,9.30
2019-05-25T05:49:08.385Z,9.23
2019-05-25T05:53:57.107Z,9.93
2019-05-25T05:58:41.892Z,9.53
2019-05-25T06:03:26.792Z,9.47
2019-05-25T06:08:11.443Z,10.03
2019-05-25T06:12:56.305Z,10.73
2019-05-25T06:17:41.244Z,10.23
2019-05-25T06:22:26.141Z,10.33
2019-05-25T06:27:26.520Z,9.60
2019-05-25T06:31:58.460Z,8.23
2019-05-25T06:36:43.604Z,8.10
2019-05-25T06:41:28.801Z,10.40
2019-05-25T06:46:13.641Z,8.33
2019-05-25T06:51:01.456Z,7.87
2019-05-25T06:55:47.199Z,9.03
2019-05-25T07:00:32.307Z,8.93
2019-05-25T07:05:17.623Z,9.20
2019-05-25T07:10:02.845Z,8.17
2019-05-25T07:14:47.998Z,8.30
2019-05-25T07:19:34.442Z,8.43
2019-05-25T07:24:19.743Z,8.57
2019-05-25T07:29:04.663Z,8.77
2019-05-25T07:33:49.241Z,9.30
2019-05-25T07:38:33.997Z,8.73
2019-05-25T07:43:21.526Z,7.13
2019-05-25T07:48:06.465Z,7.03
2019-05-25T07:52:51.525Z,7.40
2019-05-25T07:57:36.989Z,8.37
2019-05-25T08:02:22.185Z,7.87
2019-05-25T08:07:06.932Z,6.63
2019-05-25T08:11:51.811Z,6.23
2019-05-25T08:16:36.831Z,7.27
2019-05-25T08:21:23.063Z,6.43
2019-05-25T08:26:07.879Z,6.70
2019-05-25T08:30:52.765Z,7.00
2019-05-25T08:35:38.279Z,7.20
2019-05-25T08:40:23.159Z,6.07
2019-05-25T08:45:08.206Z,5.43
2019-05-25T08:49:56.097Z,6.33
2019-05-25T08:54:40.985Z,5.70
2019-05-25T08:59:28.646Z,3.50
2019-05-25T09:04:13.819Z,3.20
2019-05-25T09:08:59.102Z,2.90
2019-05-25T09:13:44.145Z,3.23
2019-05-25T09:18:29.036Z,3.73
2019-05-25T09:23:13.727Z,4.37
2019-05-25T09:27:58.503Z,4.10
2019-05-25T09:32:43.236Z,4.60
2019-05-25T09:37:27.885Z,4.33
2019-05-25T09:42:12.748Z,4.17
2019-05-25T09:46:59.558Z,4.03
2019-05-25T09:51:44.795Z,3.70
2019-05-25T09:56:29.518Z,3.90
2019-05-25T10:01:14.908Z,4.63
2019-05-25T10:06:00.102Z,4.63
2019-05-25T10:10:45.516Z,4.97
2019-05-25T10:15:30.652Z,4.03
2019-05-25T10:20:16.201Z,5.03
2019-05-25T10:25:00.858Z,5.33
2019-05-25T10:29:53.523Z,5.90
2019-05-25T10:34:39.460Z,4.97
2019-05-25T10:39:24.236Z,4.40
2019-05-25T10:44:09.224Z,5.90
2019-05-25T10:48:54.611Z,5.40
2019-05-25T10:53:39.677Z,6.10
2019-05-25T10:58:31.381Z,6.73
2019-05-25T11:03:16.658Z,4.83
2019-05-25T11:08:03.405Z,6.23
2019-05-25T11:12:48.721Z,5.80
2019-05-25T11:17:33.984Z,6.10
2019-05-25T11:22:19.297Z,5.97
2019-05-25T11:27:04.019Z,6.53
2019-05-25T11:31:56.728Z,6.17
2019-05-25T11:36:35.688Z,6.90
2019-05-25T11:41:20.948Z,6.80
2019-05-25T11:46:05.929Z,6.73
2019-05-25T11:50:51.049Z,5.80
2019-05-25T11:55:36.211Z,6.13
2019-05-25T12:00:25.335Z,6.73
2019-05-25T12:05:09.270Z,6.03
2019-05-25T12:09:54.607Z,5.57
2019-05-25T12:14:41.805Z,6.17
2019-05-25T12:19:28.208Z,5.23
2019-05-25T12:24:13.184Z,5.80
2019-05-25T12:28:58.134Z,5.60
2019-05-25T12:33:43.118Z,5.90
2019-05-25T12:38:28.332Z,5.20
2019-05-25T12:43:13.162Z,5.77
2019-05-25T12:47:58.072Z,5.30
2019-05-25T12:52:45.946Z,5.70
2019-05-25T12:57:31.281Z,5.87
2019-05-25T13:02:16.128Z,6.03
2019-05-25T13:07:01.159Z,5.80
2019-05-25T13:11:46.607Z,5.93
2019-05-25T13:16:32.026Z,5.73
2019-05-25T13:21:17.113Z,6.47
2019-05-25T13:26:02.360Z,6.37
2019-05-25T13:30:47.632Z,5.87
2019-05-25T13:35:32.775Z,6.30
2019-05-25T13:40:18.086Z,5.53
2019-05-25T13:45:03.206Z,6.80
2019-05-25T13:49:48.724Z,6.17
2019-05-25T13:54:33.874Z,5.20
2019-05-25T13:59:19.040Z,4.83
2019-05-25T14:04:04.294Z,5.83
2019-05-25T14:08:49.206Z,7.30
2019-05-25T14:13:34.097Z,6.10
2019-05-25T14:18:19.367Z,6.63
2019-05-25T14:23:04.439Z,5.23
2019-05-25T14:27:49.436Z,6.10
2019-05-25T14:32:34.988Z,5.63
2019-05-25T14:37:19.973Z,5.80
2019-05-25T14:42:04.760Z,5.80
2019-05-25T14:46:49.727Z,5.97
2019-05-25T14:51:35.250Z,9.00
2019-05-25T14:56:20.240Z,7.70
2019-05-25T15:01:05.064Z,7.10
2019-05-25T15:05:50.022Z,6.37
2019-05-25T15:10:35.018Z,7.47
2019-05-25T15:15:20.143Z,8.60
2019-05-25T15:20:05.248Z,8.03
2019-05-25T15:24:50.367Z,9.13
2019-05-25T15:29:36.158Z,8.93
2019-05-25T15:34:20.994Z,10.57
2019-05-25T15:39:08.134Z,10.27
2019-05-25T15:43:53.299Z,9.50
2019-05-25T15:48:39.075Z,9.00
2019-05-25T15:53:25.256Z,10.47
2019-05-25T15:58:10.250Z,10.83
2019-05-25T16:02:55.827Z,9.80
2019-05-25T16:07:43.947Z,10.67
2019-05-25T16:12:29.122Z,10.80
2019-05-25T16:17:14.455Z,10.90
2019-05-25T16:21:59.787Z,11.70
2019-05-25T16:26:46.555Z,12.40
2019-05-25T16:31:32.071Z,11.90
2019-05-25T16:36:18.216Z,12.70
2019-05-25T16:41:03.010Z,12.27
2019-05-25T16:45:51.352Z,12.00
2019-05-25T16:50:36.142Z,12.23
2019-05-25T16:55:21.279Z,12.97
2019-05-25T17:00:07.836Z,11.63
2019-05-25T17:04:53.011Z,13.27
2019-05-25T17:09:42.339Z,13.90
2019-05-25T17:14:27.414Z,13.80
2019-05-25T17:19:12.176Z,14.33
2019-05-25T17:23:57.630Z,13.27
2019-05-25T17:28:42.782Z,11.43
2019-05-25T17:33:44.223Z,12.50
2019-05-25T17:38:14.574Z,13.00
2019-05-25T17:43:15.995Z,12.80
2019-05-25T17:48:01.566Z,11.80
2019-05-25T17:52:46.836Z,12.63
2019-05-25T17:57:32.379Z,11.87
2019-05-25T18:02:18.254Z,10.10
2019-05-25T18:07:05.426Z,10.33
2019-05-25T18:11:50.813Z,8.77
2019-05-25T18:16:36.614Z,8.83
2019-05-25T18:21:22.014Z,8.53
2019-05-25T18:26:07.288Z,9.30
2019-05-25T18:30:52.728Z,8.60
2019-05-25T18:35:37.921Z,8.37
2019-05-25T18:40:23.208Z,8.30
2019-05-25T18:45:10.623Z,8.23
2019-05-25T18:49:55.900Z,7.57
2019-05-25T18:54:40.934Z,7.30
2019-05-25T18:59:26.543Z,7.37
2019-05-25T19:04:13.127Z,7.90
2019-05-25T19:08:59.002Z,7.83
2019-05-25T19:13:44.267Z,7.77
2019-05-25T19:18:29.655Z,7.13
2019-05-25T19:23:15.093Z,7.17
2019-05-25T19:28:02.980Z,6.87
2019-05-25T19:32:48.659Z,7.63
2019-05-25T19:37:34.418Z,7.90
2019-05-25T19:42:20.455Z,8.17
2019-05-25T19:47:05.630Z,8.33
2019-05-25T19:51:50.913Z,8.57
2019-05-25T19:56:36.072Z,9.13
2019-05-25T20:01:22.216Z,8.00
2019-05-25T20:06:07.108Z,8.10
2019-05-25T20:10:55.435Z,8.30
2019-05-25T20:15:39.012Z,7.63
2019-05-25T20:20:26.975Z,7.90
2019-05-25T20:25:16.631Z,7.07
2019-05-25T20:30:01.588Z,8.10
2019-05-25T20:34:47.235Z,8.20
2019-05-25T20:39:33.021Z,7.47
2019-05-25T20:44:18.123Z,8.17
2019-05-25T20:49:03.402Z,8.43
2019-05-25T20:53:48.499Z,7.73
2019-05-25T20:58:34.337Z,8.07
2019-05-25T21:03:19.814Z,7.47
2019-05-25T21:08:04.908Z,8.30
2019-05-25T21:12:50.137Z,7.93
2019-05-25T21:17:37.986Z,7.13
2019-05-25T21:22:23.763Z,7.13
2019-05-25T21:27:09.409Z,7.60
2019-05-25T21:31:54.868Z,6.40
2019-05-25T21:36:43.276Z,7.23
2019-05-25T21:41:27.370Z,7.40
2019-05-25T21:46:12.422Z,7.13
2019-05-25T21:50:57.480Z,6.67
2019-05-25T21:55:42.515Z,6.90
2019-05-25T22:00:29.367Z,7.43
2019-05-25T22:05:14.984Z,7.17
2019-05-25T22:10:00.311Z,6.07
2019-05-25T22:14:45.708Z,5.47
2019-05-25T22:19:31.179Z,6.00
2019-05-25T22:24:16.462Z,5.40
2019-05-25T22:29:01.397Z,6.10
2019-05-25T22:33:46.494Z,5.20
2019-05-25T22:38:32.698Z,5.80
2019-05-25T22:43:22.293Z,5.57
2019-05-25T22:48:07.058Z,5.83
2019-05-25T22:52:53.109Z,5.70
2019-05-25T22:57:40.488Z,5.93
2019-05-25T23:02:25.390Z,6.43
2019-05-25T23:07:10.270Z,6.03
2019-05-25T23:11:56.278Z,5.83
2019-05-25T23:16:50.888Z,6.43
2019-05-25T23:21:35.740Z,6.13
2019-05-25T23:26:20.840Z,6.00
2019-05-25T23:31:05.684Z,5.90
2019-05-25T23:35:53.199Z,6.23
2019-05-25T23:40:38.135Z,6.37
2019-05-25T23:45:23.326Z,6.50
2019-05-25T23:50:08.600Z,6.93
2019-05-25T23:54:53.589Z,6.03
2019-05-25T23:59:38.784Z,7.03
